TAF Text Data
IDs:
Format:
Raw Decoded Include METAR

Data at: 2339 UTC 18 Dec 2018

KABQ 182252Z 33014G21KT 10SM FEW070 FEW150 FEW220 12/M04 A3001 RMK AO2 SLP134 T01221044

KABQ 182320Z 1900/1924 33015G23KT P6SM FEW200
  FM190200 34010KT P6SM FEW200
  FM190700 36008KT P6SM SCT200
  FM191900 33020G30KT P6SM SCT200